sensor_id;sensor_type;location;lat;lon;timestamp;temperature;humidity
43227;DHT22;28839;52.404;9.808;2024-02-23T00:05:11;9.30;1.00
43227;DHT22;28839;52.404;9.808;2024-02-23T00:12:06;9.40;1.00
43227;DHT22;28839;52.404;9.808;2024-02-23T00:19:01;9.30;1.00
43227;DHT22;28839;52.404;9.808;2024-02-23T00:25:55;9.20;1.00
43227;DHT22;28839;52.404;9.808;2024-02-23T00:32:50;9.20;1.00
43227;DHT22;28839;52.404;9.808;2024-02-23T00:39:43;9.20;1.00
43227;DHT22;28839;52.404;9.808;2024-02-23T00:46:37;9.10;1.00
43227;DHT22;28839;52.404;9.808;2024-02-23T00:53:32;9.20;1.00
43227;DHT22;28839;52.404;9.808;2024-02-23T01:00:26;9.20;1.00
43227;DHT22;28839;52.404;9.808;2024-02-23T01:07:20;9.20;1.00
43227;DHT22;28839;52.404;9.808;2024-02-23T01:14:15;9.10;1.00
43227;DHT22;28839;52.404;9.808;2024-02-23T01:21:08;9.10;1.00
43227;DHT22;28839;52.404;9.808;2024-02-23T01:28:02;8.80;1.00
43227;DHT22;28839;52.404;9.808;2024-02-23T01:34:58;8.70;1.00
43227;DHT22;28839;52.404;9.808;2024-02-23T01:41:51;8.60;1.00
43227;DHT22;28839;52.404;9.808;2024-02-23T01:48:47;8.40;1.00
43227;DHT22;28839;52.404;9.808;2024-02-23T01:55:42;7.90;18.90
43227;DHT22;28839;52.404;9.808;2024-02-23T02:02:38;7.40;80.70
43227;DHT22;28839;52.404;9.808;2024-02-23T02:09:32;6.80;99.90
43227;DHT22;28839;52.404;9.808;2024-02-23T02:16:27;6.60;99.90
43227;DHT22;28839;52.404;9.808;2024-02-23T02:23:21;6.40;99.90
43227;DHT22;28839;52.404;9.808;2024-02-23T02:30:16;6.10;99.90
43227;DHT22;28839;52.404;9.808;2024-02-23T02:37:11;6.10;99.90
43227;DHT22;28839;52.404;9.808;2024-02-23T02:44:05;6.10;99.90
43227;DHT22;28839;52.404;9.808;2024-02-23T02:51:00;5.90;99.90
43227;DHT22;28839;52.404;9.808;2024-02-23T02:57:55;5.80;99.90
43227;DHT22;28839;52.404;9.808;2024-02-23T03:04:48;5.90;99.90
43227;DHT22;28839;52.404;9.808;2024-02-23T03:11:42;5.90;99.90
43227;DHT22;28839;52.404;9.808;2024-02-23T03:18:37;5.90;99.90
43227;DHT22;28839;52.404;9.808;2024-02-23T03:25:31;5.80;96.70
43227;DHT22;28839;52.404;9.808;2024-02-23T03:32:24;5.80;96.20
43227;DHT22;28839;52.404;9.808;2024-02-23T03:39:20;5.70;96.00
43227;DHT22;28839;52.404;9.808;2024-02-23T03:46:14;5.80;93.60
43227;DHT22;28839;52.404;9.808;2024-02-23T03:53:09;5.70;95.20
43227;DHT22;28839;52.404;9.808;2024-02-23T04:00:05;5.70;91.20
43227;DHT22;28839;52.404;9.808;2024-02-23T04:07:00;5.80;86.30
43227;DHT22;28839;52.404;9.808;2024-02-23T04:13:54;5.80;79.30
43227;DHT22;28839;52.404;9.808;2024-02-23T04:20:49;5.90;71.50
43227;DHT22;28839;52.404;9.808;2024-02-23T04:27:43;5.90;45.80
43227;DHT22;28839;52.404;9.808;2024-02-23T04:34:37;6.00;33.80
43227;DHT22;28839;52.404;9.808;2024-02-23T04:41:33;6.10;37.00
43227;DHT22;28839;52.404;9.808;2024-02-23T04:48:27;6.10;30.10
43227;DHT22;28839;52.404;9.808;2024-02-23T04:55:23;6.10;23.50
43227;DHT22;28839;52.404;9.808;2024-02-23T05:02:18;6.10;23.90
43227;DHT22;28839;52.404;9.808;2024-02-23T05:09:12;6.10;28.50
43227;DHT22;28839;52.404;9.808;2024-02-23T05:16:06;6.20;23.20
43227;DHT22;28839;52.404;9.808;2024-02-23T05:23:01;6.20;20.30
43227;DHT22;28839;52.404;9.808;2024-02-23T05:29:55;6.20;9.80
43227;DHT22;28839;52.404;9.808;2024-02-23T05:36:49;6.20;7.10
43227;DHT22;28839;52.404;9.808;2024-02-23T05:43:44;6.10;1.00
43227;DHT22;28839;52.404;9.808;2024-02-23T05:50:38;6.10;1.00
43227;DHT22;28839;52.404;9.808;2024-02-23T05:57:32;6.20;1.00
43227;DHT22;28839;52.404;9.808;2024-02-23T06:04:27;6.10;1.00
43227;DHT22;28839;52.404;9.808;2024-02-23T06:11:21;6.20;1.00
43227;DHT22;28839;52.404;9.808;2024-02-23T06:18:15;6.20;1.00
43227;DHT22;28839;52.404;9.808;2024-02-23T06:25:10;6.10;1.00
43227;DHT22;28839;52.404;9.808;2024-02-23T06:32:05;6.10;1.00
43227;DHT22;28839;52.404;9.808;2024-02-23T06:38:59;6.10;3.90
43227;DHT22;28839;52.404;9.808;2024-02-23T06:45:54;6.10;8.50
43227;DHT22;28839;52.404;9.808;2024-02-23T06:52:48;6.00;6.20
43227;DHT22;28839;52.404;9.808;2024-02-23T06:59:42;6.00;9.80
43227;DHT22;28839;52.404;9.808;2024-02-23T07:06:37;6.20;4.30
43227;DHT22;28839;52.404;9.808;2024-02-23T07:13:31;6.20;3.40
43227;DHT22;28839;52.404;9.808;2024-02-23T07:20:25;6.30;1.00
43227;DHT22;28839;52.404;9.808;2024-02-23T07:27:20;6.40;1.00
43227;DHT22;28839;52.404;9.808;2024-02-23T07:34:14;6.40;1.00
43227;DHT22;28839;52.404;9.808;2024-02-23T07:41:07;6.50;1.00
43227;DHT22;28839;52.404;9.808;2024-02-23T07:48:03;6.40;1.00
43227;DHT22;28839;52.404;9.808;2024-02-23T07:54:57;6.50;1.00
43227;DHT22;28839;52.404;9.808;2024-02-23T08:01:52;6.60;1.00
43227;DHT22;28839;52.404;9.808;2024-02-23T08:08:47;6.60;1.00
43227;DHT22;28839;52.404;9.808;2024-02-23T08:15:41;6.70;1.00
43227;DHT22;28839;52.404;9.808;2024-02-23T08:22:35;6.80;1.00
43227;DHT22;28839;52.404;9.808;2024-02-23T08:29:30;6.80;1.00
43227;DHT22;28839;52.404;9.808;2024-02-23T08:36:24;7.20;1.00
43227;DHT22;28839;52.404;9.808;2024-02-23T08:43:17;7.40;1.00
43227;DHT22;28839;52.404;9.808;2024-02-23T08:50:14;7.70;1.00
43227;DHT22;28839;52.404;9.808;2024-02-23T08:57:08;7.90;1.00
43227;DHT22;28839;52.404;9.808;2024-02-23T09:04:01;7.80;1.00
43227;DHT22;28839;52.404;9.808;2024-02-23T09:10:57;8.30;1.00
43227;DHT22;28839;52.404;9.808;2024-02-23T09:17:50;7.90;1.00
43227;DHT22;28839;52.404;9.808;2024-02-23T09:24:44;7.80;1.00
43227;DHT22;28839;52.404;9.808;2024-02-23T09:31:40;8.10;1.00
43227;DHT22;28839;52.404;9.808;2024-02-23T09:38:33;7.60;1.00
43227;DHT22;28839;52.404;9.808;2024-02-23T09:45:27;7.60;1.00
43227;DHT22;28839;52.404;9.808;2024-02-23T09:52:23;7.70;1.00
43227;DHT22;28839;52.404;9.808;2024-02-23T09:59:17;7.70;1.00
43227;DHT22;28839;52.404;9.808;2024-02-23T10:06:10;8.00;1.00
43227;DHT22;28839;52.404;9.808;2024-02-23T10:13:05;8.10;1.00
43227;DHT22;28839;52.404;9.808;2024-02-23T10:20:00;8.50;1.00
43227;DHT22;28839;52.404;9.808;2024-02-23T10:26:56;8.70;1.00
43227;DHT22;28839;52.404;9.808;2024-02-23T10:33:52;9.30;1.00
43227;DHT22;28839;52.404;9.808;2024-02-23T10:40:47;9.20;1.00
43227;DHT22;28839;52.404;9.808;2024-02-23T10:47:43;10.10;1.00
43227;DHT22;28839;52.404;9.808;2024-02-23T10:54:38;9.90;1.00
43227;DHT22;28839;52.404;9.808;2024-02-23T11:01:32;9.50;1.00
43227;DHT22;28839;52.404;9.808;2024-02-23T11:08:28;9.60;1.00
43227;DHT22;28839;52.404;9.808;2024-02-23T11:15:29;9.70;1.00
43227;DHT22;28839;52.404;9.808;2024-02-23T11:22:26;10.00;1.00
43227;DHT22;28839;52.404;9.808;2024-02-23T11:29:21;9.60;1.00
43227;DHT22;28839;52.404;9.808;2024-02-23T11:36:23;9.70;1.00
43227;DHT22;28839;52.404;9.808;2024-02-23T11:43:19;9.80;1.00
43227;DHT22;28839;52.404;9.808;2024-02-23T11:50:17;9.60;1.00
43227;DHT22;28839;52.404;9.808;2024-02-23T11:57:14;9.70;1.00
43227;DHT22;28839;52.404;9.808;2024-02-23T12:04:08;9.80;1.00
43227;DHT22;28839;52.404;9.808;2024-02-23T12:11:02;9.90;1.00
43227;DHT22;28839;52.404;9.808;2024-02-23T12:17:59;9.80;1.00
43227;DHT22;28839;52.404;9.808;2024-02-23T12:24:56;9.60;1.00
43227;DHT22;28839;52.404;9.808;2024-02-23T12:31:50;9.50;1.00
43227;DHT22;28839;52.404;9.808;2024-02-23T12:38:46;9.40;1.00
43227;DHT22;28839;52.404;9.808;2024-02-23T12:45:40;9.60;1.00
43227;DHT22;28839;52.404;9.808;2024-02-23T12:52:34;9.50;1.00
43227;DHT22;28839;52.404;9.808;2024-02-23T12:59:29;10.00;1.00
43227;DHT22;28839;52.404;9.808;2024-02-23T13:06:23;9.70;1.00
43227;DHT22;28839;52.404;9.808;2024-02-23T13:13:16;9.40;1.00
43227;DHT22;28839;52.404;9.808;2024-02-23T13:20:12;9.60;1.00
43227;DHT22;28839;52.404;9.808;2024-02-23T13:27:06;9.60;1.00
43227;DHT22;28839;52.404;9.808;2024-02-23T13:34:00;9.60;1.00
43227;DHT22;28839;52.404;9.808;2024-02-23T13:40:55;9.70;1.00
43227;DHT22;28839;52.404;9.808;2024-02-23T13:47:56;9.50;1.00
43227;DHT22;28839;52.404;9.808;2024-02-23T13:54:50;9.60;1.00
43227;DHT22;28839;52.404;9.808;2024-02-23T14:01:45;9.60;1.00
43227;DHT22;28839;52.404;9.808;2024-02-23T14:08:39;9.40;1.00
43227;DHT22;28839;52.404;9.808;2024-02-23T14:15:34;9.30;1.00
43227;DHT22;28839;52.404;9.808;2024-02-23T14:22:29;9.30;1.00
43227;DHT22;28839;52.404;9.808;2024-02-23T14:29:26;9.20;1.00
43227;DHT22;28839;52.404;9.808;2024-02-23T14:36:20;9.20;1.00
43227;DHT22;28839;52.404;9.808;2024-02-23T14:43:16;9.20;1.00
43227;DHT22;28839;52.404;9.808;2024-02-23T14:50:10;9.30;1.00
43227;DHT22;28839;52.404;9.808;2024-02-23T14:57:04;9.30;1.00
43227;DHT22;28839;52.404;9.808;2024-02-23T15:03:59;9.30;1.00
43227;DHT22;28839;52.404;9.808;2024-02-23T15:10:53;9.30;1.00
43227;DHT22;28839;52.404;9.808;2024-02-23T15:17:47;9.20;1.00
43227;DHT22;28839;52.404;9.808;2024-02-23T15:24:44;9.30;1.00
43227;DHT22;28839;52.404;9.808;2024-02-23T15:31:38;9.30;1.00
43227;DHT22;28839;52.404;9.808;2024-02-23T15:38:32;9.30;1.00
43227;DHT22;28839;52.404;9.808;2024-02-23T15:45:27;9.10;1.00
43227;DHT22;28839;52.404;9.808;2024-02-23T15:52:21;9.10;1.00
43227;DHT22;28839;52.404;9.808;2024-02-23T15:59:15;9.10;1.00
43227;DHT22;28839;52.404;9.808;2024-02-23T16:06:10;9.00;1.00
43227;DHT22;28839;52.404;9.808;2024-02-23T16:13:04;9.10;1.00
43227;DHT22;28839;52.404;9.808;2024-02-23T16:19:58;9.00;1.00
43227;DHT22;28839;52.404;9.808;2024-02-23T16:26:54;9.00;1.00
43227;DHT22;28839;52.404;9.808;2024-02-23T16:33:47;8.90;1.00
43227;DHT22;28839;52.404;9.808;2024-02-23T16:40:41;8.90;1.00
43227;DHT22;28839;52.404;9.808;2024-02-23T16:47:37;8.90;1.00
43227;DHT22;28839;52.404;9.808;2024-02-23T16:54:30;8.80;1.00
43227;DHT22;28839;52.404;9.808;2024-02-23T17:01:24;8.70;1.00
43227;DHT22;28839;52.404;9.808;2024-02-23T17:08:20;8.80;1.00
43227;DHT22;28839;52.404;9.808;2024-02-23T17:15:14;8.70;99.90
43227;DHT22;28839;52.404;9.808;2024-02-23T17:22:07;8.70;99.90
43227;DHT22;28839;52.404;9.808;2024-02-23T17:29:02;8.60;99.90
43227;DHT22;28839;52.404;9.808;2024-02-23T17:35:56;8.60;99.90
43227;DHT22;28839;52.404;9.808;2024-02-23T17:42:50;8.50;99.90
43227;DHT22;28839;52.404;9.808;2024-02-23T17:49:45;8.50;99.90
43227;DHT22;28839;52.404;9.808;2024-02-23T17:56:40;8.40;99.90
43227;DHT22;28839;52.404;9.808;2024-02-23T18:03:33;8.30;99.90
43227;DHT22;28839;52.404;9.808;2024-02-23T18:10:29;8.40;99.90
43227;DHT22;28839;52.404;9.808;2024-02-23T18:17:24;8.30;99.90
43227;DHT22;28839;52.404;9.808;2024-02-23T18:24:18;8.20;99.90
43227;DHT22;28839;52.404;9.808;2024-02-23T18:31:15;8.20;99.90
43227;DHT22;28839;52.404;9.808;2024-02-23T18:38:09;8.10;99.90
43227;DHT22;28839;52.404;9.808;2024-02-23T18:45:04;8.20;99.90
43227;DHT22;28839;52.404;9.808;2024-02-23T18:51:59;8.10;99.90
43227;DHT22;28839;52.404;9.808;2024-02-23T18:58:53;8.10;99.90
43227;DHT22;28839;52.404;9.808;2024-02-23T19:05:47;8.00;1.00
43227;DHT22;28839;52.404;9.808;2024-02-23T19:12:42;7.80;1.00
43227;DHT22;28839;52.404;9.808;2024-02-23T19:19:36;7.80;1.00
43227;DHT22;28839;52.404;9.808;2024-02-23T19:26:30;7.60;1.00
43227;DHT22;28839;52.404;9.808;2024-02-23T19:33:26;7.70;1.00
43227;DHT22;28839;52.404;9.808;2024-02-23T19:40:20;7.50;1.00
43227;DHT22;28839;52.404;9.808;2024-02-23T19:47:15;7.50;1.00
43227;DHT22;28839;52.404;9.808;2024-02-23T19:54:10;7.40;1.00
43227;DHT22;28839;52.404;9.808;2024-02-23T20:01:03;7.30;1.00
43227;DHT22;28839;52.404;9.808;2024-02-23T20:07:57;7.20;1.00
43227;DHT22;28839;52.404;9.808;2024-02-23T20:14:52;7.30;1.00
43227;DHT22;28839;52.404;9.808;2024-02-23T20:21:47;7.30;1.00
43227;DHT22;28839;52.404;9.808;2024-02-23T20:28:41;7.20;1.00
43227;DHT22;28839;52.404;9.808;2024-02-23T20:35:38;7.20;1.00
43227;DHT22;28839;52.404;9.808;2024-02-23T20:42:31;7.10;1.00
43227;DHT22;28839;52.404;9.808;2024-02-23T20:49:25;7.10;1.00
43227;DHT22;28839;52.404;9.808;2024-02-23T20:56:20;7.00;1.00
43227;DHT22;28839;52.404;9.808;2024-02-23T21:03:14;6.90;1.00
43227;DHT22;28839;52.404;9.808;2024-02-23T21:10:09;6.70;1.00
43227;DHT22;28839;52.404;9.808;2024-02-23T21:17:04;6.80;1.00
43227;DHT22;28839;52.404;9.808;2024-02-23T21:23:58;6.60;1.00
43227;DHT22;28839;52.404;9.808;2024-02-23T21:30:56;6.50;1.00
43227;DHT22;28839;52.404;9.808;2024-02-23T21:37:57;6.50;1.00
43227;DHT22;28839;52.404;9.808;2024-02-23T21:44:51;6.40;1.00
43227;DHT22;28839;52.404;9.808;2024-02-23T21:51:45;6.20;1.00
43227;DHT22;28839;52.404;9.808;2024-02-23T21:58:40;6.10;1.00
43227;DHT22;28839;52.404;9.808;2024-02-23T22:05:33;6.10;1.00
43227;DHT22;28839;52.404;9.808;2024-02-23T22:12:27;6.00;11.50
43227;DHT22;28839;52.404;9.808;2024-02-23T22:19:23;6.00;17.10
43227;DHT22;28839;52.404;9.808;2024-02-23T22:26:17;5.70;24.30
43227;DHT22;28839;52.404;9.808;2024-02-23T22:33:10;5.50;33.10
43227;DHT22;28839;52.404;9.808;2024-02-23T22:40:07;5.50;36.30
43227;DHT22;28839;52.404;9.808;2024-02-23T22:47:05;5.40;40.40
43227;DHT22;28839;52.404;9.808;2024-02-23T22:53:59;5.10;61.10
43227;DHT22;28839;52.404;9.808;2024-02-23T23:00:54;4.80;78.10
43227;DHT22;28839;52.404;9.808;2024-02-23T23:07:48;4.60;94.10
43227;DHT22;28839;52.404;9.808;2024-02-23T23:14:42;4.80;99.90
43227;DHT22;28839;52.404;9.808;2024-02-23T23:21:37;4.50;99.90
43227;DHT22;28839;52.404;9.808;2024-02-23T23:28:30;4.30;99.90
43227;DHT22;28839;52.404;9.808;2024-02-23T23:35:24;4.10;99.90
43227;DHT22;28839;52.404;9.808;2024-02-23T23:42:20;4.20;99.90
43227;DHT22;28839;52.404;9.808;2024-02-23T23:49:14;4.10;99.90
43227;DHT22;28839;52.404;9.808;2024-02-23T23:56:08;4.50;99.90
